Santa Teresa, Brazil
Current Conditions -  °F | °C
As of 9:00 PM on Friday 31 Oct 2014 (Local Time) from SBVT Reporting Station
Broken Clouds Broken Clouds  
Wind Chill: 73°   Ceiling: 2000
Heat Index: 73°   Visibility: 6mi
Dew Point: 66°   Wind: 15mph
Humidity: 78%   Direction: 40°NE
Pressure: 30.03"   Gusts: NA
Location:  19.94°S, 40.59°W
Report Text: SBVT 312300Z 04013KT 9999 BKN020 23/19 Q1017
Loading
Personal Weather Stations






























Interactive Weather Map
Tropical Storm Tracking
New forecast layout! Learn more

10-Day Weather Forecast

Advertisements
Track Severe Weather on mobile